ADDS METAR Data INFO
IDs: Format: Raw Decoded Include TAF

Data at: 1533 UTC 18 Jun 2018

KSPW 181453Z AUTO 34004KT 10SM OVC012 23/21 A2997 RMK AO2 RAE26 SLP139 P0000 60000 T02330206 50011
KSPW 181440Z AUTO VRB03KT 10SM SCT009 BKN013 OVC100 23/21 A2997 RMK AO2 RAE26 P0000 T02330211
KSPW 181414Z AUTO 01003KT 10SM -RA BKN010 OVC100 23/21 A2997 RMK AO2 CIG 005V016 P0000 T02280211
KSPW 181359Z AUTO 00000KT 10SM -RA SCT009 SCT029 OVC110 23/21 A2997 RMK AO2 P0000 T02280211
KSPW 181353Z AUTO 00000KT 10SM -RA BKN005 BKN019 OVC110 23/21 A2997 RMK AO2 RAB34 SLP141 P0000 T02280211
KSPW 181344Z AUTO 27003KT 8SM -RA SCT005 BKN016 OVC050 22/21 A2998 RMK AO2 RAB34 P0000 T02220211
KSPW 181332Z AUTO 29003KT 10SM BKN005 OVC031 22/21 A2997 RMK AO2 T02220211
KSPW 181320Z AUTO 00000KT 10SM FEW005 BKN028 OVC033 22/21 A2997 RMK AO2 T02220211
KSPW 181253Z AUTO 00000KT 10SM SCT027 OVC110 22/21 A2996 RMK AO2 RAE1156 SLP135 P0000 T02220211
KSPW 181153Z AUTO 00000KT 10SM -RA FEW070 OVC100 22/21 A2993 RMK AO2 RAE21B24 SLP126 P0001 60017 70066 T02170206 10222 20217 51002
KSPW 181123Z AUTO 00000KT 10SM FEW009 BKN110 22/21 A2994 RMK AO2 RAE21 P0000 T02170206
KSPW 181053Z AUTO 00000KT 10SM -RA BKN110 22/21 A2993 RMK AO2 SLP126 P0004 T02170206
KSPW 180953Z AUTO 00000KT 9SM -RA FEW037 BKN055 OVC075 22/21 A2994 RMK AO2 LTG DSNT E SLP126 P0003 T02170206
KSPW 180925Z AUTO 35005KT 6SM -RA BR FEW009 BKN050 OVC085 22/21 A2993 RMK AO2 P0003 T02170206
KSPW 180910Z AUTO 01003KT 6SM -RA BR FEW050 BKN060 OVC090 22/21 A2992 RMK AO2 LTG DSNT NW P0001 T02220211
KSPW 180853Z AUTO 03003KT 5SM VCTS RA BR OVC050 22/21 A2993 RMK AO2 LTG DSNT SW-N RAB0758 SLP123 P0003 60009 T02220211 55002
KSPW 180812Z AUTO 02005KT 10SM -RA SCT006 OVC055 22/21 A2992 RMK AO2 RAB0758 P0000 T02220206
KSPW 180753Z AUTO 33006KT 10SM OVC006 22/21 A2992 RMK AO2 LTG DSNT E RAE53 CIG 003V010 SLP121 P0000 T02220211
KSPW 180730Z AUTO 00000KT 10SM -RA BKN007 OVC049 22/21 A2992 RMK AO2 CIG 004V009 P0000 T02220211
KSPW 180713Z AUTO 05004KT 10SM -RA FEW007 BKN050 OVC065 22/21 A2991 RMK AO2 LTG DSNT NE P0000 T02220211
KSPW 180704Z AUTO 02003KT 10SM VCTS -RA FEW008 BKN060 OVC070 22/21 A2991 RMK AO2 P0000 T02220211
KSPW 180653Z AUTO 01004KT 8SM VCTS -RA SCT011 BKN060 OVC075 22/21 A2992 RMK AO2 RAE34B45 SLP119 P0006 T02220211
KSPW 180651Z AUTO 02003KT 10SM -RA FEW008 BKN065 OVC085 22/21 A2992 RMK AO2 RAE34B45 P0006
KSPW 180639Z AUTO 33004KT 10SM VCTS SCT060 BKN075 BKN090 22/21 A2992 RMK AO2 LTG DSNT N AND E AND W RAE34 P0006 T02170206
KSPW 180619Z AUTO 00000KT 10SM -RA SCT011 SCT043 BKN055 22/21 A2992 RMK AO2 LTG DSNT E AND SE AND W P0006 T02170206
KSPW 180611Z AUTO 15004KT 2 1/2SM +RA BR SCT011 BKN042 BKN055 22/21 A2993 RMK AO2 LTG DSNT E AND SE P0006 T02170206
KSPW 180607Z AUTO 00000KT 3SM RA BR BKN011 BKN042 OVC055 22/21 A2993 RMK AO2 LTG DSNT E AND SE P0006 T02170211
KSPW 180556Z AUTO 26003KT 3SM +RA BR SCT009 BKN060 OVC070 22/21 A2994 RMK AO2 LTG DSNT E AND SE P0001 T02220211
KSPW 180553Z AUTO 00000KT 2 1/2SM VCTS +RA BR FEW009 BKN055 OVC070 22/21 A2994 RMK AO2 LTG DSNT E AND SE SLP126 P0010 60049 T02220211 10289 20222 403220222 51030
KSPW 180520Z AUTO 34004KT 10SM VCTS -RA FEW055 BKN090 OVC110 22/21 A2989 RMK AO2 LTG DSNT ALQDS P0001 T02220206
KSPW 180502Z AUTO 35011KT 7SM -RA BKN038 BKN050 OVC110 22/21 A2989 RMK AO2 LTG DSNT ALQDS PRESFR P0001 T02220206
KSPW 180453Z AUTO 34012G25KT 3SM VCTS RA BR FEW015 BKN032 OVC075 22/21 A2990 RMK AO2 PK WND 25044/0423 LTG DSNT W-NE RAB19 TSB22E42 SLP114 P0039 T02220211
KSPW 180448Z AUTO 33017G30KT 1 1/2SM VCTS +RA BR FEW013 BKN029 OVC070 22/21 A2990 RMK AO2 PK WND 25044/0423 LTG DSNT W-NE RAB19 TSB22E42 P0039
KSPW 180440Z AUTO 31019G38KT 3/4SM +TSRA BR FEW013 BKN023 OVC060 22/21 A2992 RMK AO2 PK WND 25044/0423 LTG DSNT W-N RAB19 TSB22 P0029 T02220211
KSPW 180432Z AUTO 30028G44KT 1 1/2SM +TSRA BR FEW011 BKN031 OVC060 23/21 A2992 RMK AO2 PK WND 25044/0423 LTG DSNT ALQDS RAB19 TSB22 PRESRR P0014 T02280211
KSPW 180428Z AUTO 28029G44KT 3SM +TSRA BR FEW015 SCT023 BKN033 23/21 A2992 RMK AO2 PK WND 25044/0423 LTG DSNT ALQDS RAB19 TSB22 PRESRR P0007 T02330211
KSPW 180419Z AUTO 9SM VCTS -RA FEW028 BKN060 26/21 A2989 RMK AO2 PK WND 26033/0419 LTG DSNT ALQDS RAB19 PRESRR P0000 T02560211
KSPW 180353Z AUTO 16006KT 10SM FEW070 FEW085 BKN110 26/21 A2984 RMK AO2 LTG DSNT W-NE SLP094 T02560211
KSPW 180253Z AUTO 16003KT 10SM FEW085 25/21 A2985 RMK AO2 SLP097 T02500211 53005
KSPW 180153Z AUTO 20005KT 10SM CLR 26/21 A2984 RMK AO2 SLP092 T02610211
KSPW 180053Z AUTO 20009G18KT 10SM FEW100 29/22 A2984 RMK AO2 SLP093 T02890217
KSPW 172353Z AUTO 19008KT 10SM FEW110 30/21 A2984 RMK AO2 SLP092 T03000206 10322 20289 58006
KSPW 172253Z AUTO 20008KT 10SM OVC090 29/20 A2985 RMK AO2 SLP097 T02940200
KSPW 172153Z AUTO 20011KT 10SM BKN090 OVC110 30/21 A2984 RMK AO2 SLP094 T03000206
KSPW 172053Z AUTO 21017G26KT 10SM CLR 32/22 A2986 RMK AO2 PK WND 22026/2049 SLP097 T03220217 53001
KSPW 171953Z AUTO 20022G29KT 10SM CLR 32/21 A2985 RMK AO2 PK WND 21029/1953 SLP096 T03170211
KSPW 171853Z AUTO 21011G19KT 10SM CLR 31/22 A2985 RMK AO2 PK WND 22026/1809 SLP096 T03060217
KSPW 171753Z AUTO 21020G28KT 10SM CLR 31/21 A2985 RMK AO2 PK WND 21028/1752 SLP096 T03110211 10322 20250 53004
KSPW 171653Z AUTO 21016G24KT 10SM CLR 31/21 A2984 RMK AO2 SLP092 T03060211
KSPW 171553Z AUTO 21017KT 10SM CLR 30/22 A2984 RMK AO2 PK WND 22026/1522 SLP090 T03000217
KSPW 171453Z AUTO 20014G21KT 10SM CLR 29/22 A2984 RMK AO2 SLP092 T02940217 50004
KSPW 171353Z AUTO 19012KT 10SM CLR 28/22 A2985 RMK AO2 SLP094 T02780217
KSPW 171253Z AUTO 20009KT 10SM BKN080 BKN100 26/21 A2984 RMK AO2 SLP093 T02610211
KSPW 171153Z AUTO 17009KT 10SM BKN085 25/21 A2983 RMK AO2 SLP087 70002 T02500206 10272 20244 51008
KSPW 171053Z AUTO 18009KT 10SM CLR 24/21 A2982 RMK AO2 SLP085 T02440206
KSPW 170953Z AUTO 18009KT 10SM CLR 25/20 A2981 RMK AO2 SLP083 T02500200
KSPW 170853Z AUTO 18013KT 10SM CLR 26/20 A2980 RMK AO2 SLP077 T02610200 50003
KSPW 170753Z AUTO 18010KT 10SM CLR 26/20 A2980 RMK AO2 SLP079 T02610200
KSPW 170653Z AUTO 19009G18KT 10SM CLR 27/20 A2980 RMK AO2 SLP080 T02720200
KSPW 170553Z AUTO 19013KT 10SM CLR 27/20 A2979 RMK AO2 SLP075 T02720200 10328 20272 403440239 50011
KSPW 170453Z AUTO 18012G22KT 10SM CLR 28/20 A2980 RMK AO2 SLP078 T02780200
KSPW 170353Z AUTO 18014G20KT 10SM CLR 28/20 A2979 RMK AO2 SLP074 T02830200